createdAt,value
2023-07-14T00:01:45.766Z,99053.72
2023-07-14T00:04:14.556Z,99069.00
2023-07-14T00:06:42.427Z,99069.84
2023-07-14T00:09:27.811Z,99060.06
2023-07-14T00:11:54.777Z,99057.38
2023-07-14T00:14:21.639Z,99059.28
2023-07-14T00:16:48.589Z,99052.06
2023-07-14T00:19:17.994Z,99050.41
2023-07-14T00:21:46.208Z,99050.66
2023-07-14T00:24:18.560Z,99048.19
2023-07-14T00:26:49.920Z,99046.41
2023-07-14T00:29:39.128Z,99043.63
2023-07-14T00:32:20.332Z,99055.28
2023-07-14T00:34:48.009Z,99058.75
2023-07-14T00:37:14.775Z,99055.16
2023-07-14T00:39:42.354Z,99056.09
2023-07-14T00:42:13.901Z,99059.81
2023-07-14T00:44:40.530Z,99056.31
2023-07-14T00:47:20.478Z,99055.53
2023-07-14T00:49:48.885Z,99053.84
2023-07-14T00:52:23.687Z,99055.56
2023-07-14T00:54:52.663Z,99053.69
2023-07-14T00:57:22.009Z,99046.72
2023-07-14T00:59:49.228Z,99047.69
2023-07-14T01:02:20.803Z,99046.88
2023-07-14T01:04:49.479Z,99047.69
2023-07-14T01:07:18.168Z,99045.84
2023-07-14T01:09:46.506Z,99036.75
2023-07-14T01:12:16.568Z,99036.75
2023-07-14T01:14:47.365Z,99042.28
2023-07-14T01:17:14.579Z,99046.53
2023-07-14T01:19:49.838Z,99036.94
2023-07-14T01:23:04.919Z,99035.13
2023-07-14T01:25:37.602Z,99036.75
2023-07-14T01:28:10.076Z,99035.09
2023-07-14T01:30:38.299Z,99038.06
2023-07-14T01:33:10.073Z,99033.78
2023-07-14T01:35:40.868Z,99036.31
2023-07-14T01:38:08.062Z,99033.69
2023-07-14T01:40:35.142Z,99030.09
2023-07-14T01:43:06.198Z,99030.22
2023-07-14T01:45:42.259Z,99029.19
2023-07-14T01:48:13.768Z,99040.97
2023-07-14T01:50:53.309Z,99040.03
2023-07-14T01:53:36.304Z,99033.91
2023-07-14T01:56:08.390Z,99038.28
2023-07-14T01:58:42.508Z,99038.38
2023-07-14T02:01:12.485Z,99035.63
2023-07-14T02:03:49.466Z,99036.91
2023-07-14T02:06:16.532Z,99040.59
2023-07-14T02:08:46.090Z,99040.72
2023-07-14T02:11:24.613Z,99043.34
2023-07-14T02:13:56.563Z,99035.56
2023-07-14T02:16:24.550Z,99038.34
2023-07-14T02:18:52.655Z,99041.75
2023-07-14T02:21:26.294Z,99041.63
2023-07-14T02:23:53.624Z,99048.91
2023-07-14T02:26:28.152Z,99054.28
2023-07-14T02:28:57.786Z,99046.06
2023-07-14T02:31:41.748Z,99055.13
2023-07-14T02:34:12.303Z,99050.72
2023-07-14T02:36:46.175Z,99050.94
2023-07-14T02:39:12.685Z,99051.81
2023-07-14T02:41:42.515Z,99053.44
2023-07-14T02:44:14.800Z,99058.81
2023-07-14T02:46:56.734Z,99054.09
2023-07-14T02:49:23.229Z,99053.03
2023-07-14T02:51:50.046Z,99063.66
2023-07-14T02:54:16.526Z,99053.22
2023-07-14T02:56:43.832Z,99063.97
2023-07-14T02:59:13.342Z,99057.47
2023-07-14T03:01:39.869Z,99055.47
2023-07-14T03:04:06.649Z,99061.53
2023-07-14T03:06:33.348Z,99058.03
2023-07-14T03:08:59.941Z,99056.38
2023-07-14T03:11:29.369Z,99051.88
2023-07-14T03:13:55.893Z,99059.00
2023-07-14T03:16:22.498Z,99060.63
2023-07-14T03:18:49.295Z,99053.59
2023-07-14T03:21:16.164Z,99050.06
2023-07-14T03:23:43.238Z,99054.44
2023-07-14T03:26:10.657Z,99056.16
2023-07-14T03:28:38.081Z,99053.50
2023-07-14T03:31:05.760Z,99050.94
2023-07-14T03:33:35.218Z,99041.72
2023-07-14T03:36:07.669Z,99049.13
2023-07-14T03:38:43.650Z,99054.06
2023-07-14T03:41:12.000Z,99049.88
2023-07-14T03:43:38.914Z,99050.59
2023-07-14T03:46:05.560Z,99053.75
2023-07-14T03:48:32.137Z,99048.59
2023-07-14T03:51:05.162Z,99058.25
2023-07-14T03:53:32.424Z,99057.06
2023-07-14T03:55:59.254Z,99054.88
2023-07-14T03:58:26.099Z,99045.88
2023-07-14T04:00:52.794Z,99040.59
2023-07-14T04:03:19.491Z,99043.38
2023-07-14T04:05:48.857Z,99050.66
2023-07-14T04:08:15.518Z,99056.88
2023-07-14T04:10:42.136Z,99052.31
2023-07-14T04:13:09.369Z,99053.94
2023-07-14T04:15:35.905Z,99056.50
2023-07-14T04:18:02.769Z,99054.63
2023-07-14T04:20:29.696Z,99054.53
2023-07-14T04:22:56.586Z,99052.69
2023-07-14T04:25:23.113Z,99056.41
2023-07-14T04:27:50.739Z,99057.47
2023-07-14T04:30:17.490Z,99060.22
2023-07-14T04:32:44.450Z,99054.78
2023-07-14T04:35:11.147Z,99052.00
2023-07-14T04:37:37.703Z,99058.22
2023-07-14T04:40:09.851Z,99052.88
2023-07-14T04:42:42.700Z,99048.66
2023-07-14T04:45:09.556Z,99056.81
2023-07-14T04:47:36.096Z,99050.63
2023-07-14T04:50:02.669Z,99059.28
2023-07-14T04:52:29.431Z,99060.25
2023-07-14T04:54:56.136Z,99055.75
2023-07-14T04:57:22.667Z,99061.97
2023-07-14T04:59:49.491Z,99053.91
2023-07-14T05:02:16.059Z,99062.69
2023-07-14T05:05:00.213Z,99058.41
2023-07-14T05:07:27.451Z,99069.09
2023-07-14T05:09:54.042Z,99056.56
2023-07-14T05:12:20.536Z,99059.97
2023-07-14T05:14:47.191Z,99059.78
2023-07-14T05:17:13.711Z,99055.88
2023-07-14T05:19:40.241Z,99054.13
2023-07-14T05:22:06.830Z,99050.59
2023-07-14T05:24:33.342Z,99054.84
2023-07-14T05:27:00.884Z,99055.88
2023-07-14T05:29:27.545Z,99050.47
2023-07-14T05:31:54.052Z,99054.59
2023-07-14T05:34:20.568Z,99058.75
2023-07-14T05:36:47.778Z,99052.19
2023-07-14T05:39:14.312Z,99049.16
2023-07-14T05:41:40.850Z,99049.91
2023-07-14T05:44:07.440Z,99061.25
2023-07-14T05:46:33.983Z,99049.31
2023-07-14T05:49:00.756Z,99046.56
2023-07-14T05:51:27.291Z,99052.56
2023-07-14T05:53:54.023Z,99055.22
2023-07-14T05:56:21.111Z,99047.84
2023-07-14T05:58:47.627Z,99048.75
2023-07-14T06:01:14.276Z,99047.69
2023-07-14T06:03:40.887Z,99050.50
2023-07-14T06:06:07.496Z,99053.94
2023-07-14T06:08:34.684Z,99043.03
2023-07-14T06:11:01.282Z,99042.00
2023-07-14T06:13:29.341Z,99039.91
2023-07-14T06:15:55.855Z,99040.59
2023-07-14T06:18:22.415Z,99040.91
2023-07-14T06:20:49.058Z,99033.63
2023-07-14T06:23:15.655Z,99035.25
2023-07-14T06:25:43.048Z,99031.75
2023-07-14T06:28:12.759Z,99033.44
2023-07-14T06:30:39.418Z,99023.38
2023-07-14T06:33:08.894Z,99029.38
2023-07-14T06:35:38.657Z,99023.75
2023-07-14T06:38:08.382Z,99026.34
2023-07-14T06:40:34.894Z,99025.59
2023-07-14T06:43:02.093Z,99027.34
2023-07-14T06:45:28.779Z,99015.38
2023-07-14T06:47:56.324Z,99021.28
2023-07-14T06:50:22.846Z,99016.53
2023-07-14T06:52:49.407Z,99011.09
2023-07-14T06:55:15.998Z,99006.56
2023-07-14T06:57:42.637Z,99012.44
2023-07-14T07:00:13.463Z,99013.38
2023-07-14T07:02:40.543Z,99015.84
2023-07-14T07:05:08.239Z,99012.97
2023-07-14T07:07:35.497Z,99009.06
2023-07-14T07:10:02.901Z,99005.28
2023-07-14T07:12:29.522Z,99014.16
2023-07-14T07:14:56.199Z,99012.41
2023-07-14T07:17:22.990Z,99011.28
2023-07-14T07:19:50.195Z,99015.75
2023-07-14T07:22:16.771Z,99018.59
2023-07-14T07:24:43.439Z,99013.09
2023-07-14T07:27:10.051Z,99018.03
2023-07-14T07:29:36.674Z,99018.84
2023-07-14T07:32:04.915Z,99018.78
2023-07-14T07:34:31.724Z,99016.81
2023-07-14T07:36:58.338Z,99017.31
2023-07-14T07:39:26.159Z,99016.97
2023-07-14T07:41:52.804Z,99012.41
2023-07-14T07:44:19.642Z,99013.09
2023-07-14T07:46:46.175Z,99010.94
2023-07-14T07:49:12.829Z,99020.53
2023-07-14T07:51:39.796Z,99013.06
2023-07-14T07:54:06.354Z,99012.72
2023-07-14T07:56:36.358Z,99011.38
2023-07-14T07:59:03.087Z,99004.16
2023-07-14T08:01:29.660Z,99002.69
2023-07-14T08:03:56.480Z,98994.75
2023-07-14T08:06:23.165Z,98993.47
2023-07-14T08:08:50.024Z,98992.94
2023-07-14T08:11:16.565Z,98990.69
2023-07-14T08:13:43.480Z,98990.13
2023-07-14T08:16:11.940Z,98986.41
2023-07-14T08:18:38.956Z,98993.31
2023-07-14T08:21:06.375Z,98990.03
2023-07-14T08:23:35.529Z,98979.03
2023-07-14T08:26:04.276Z,98986.56
2023-07-14T08:28:31.784Z,98972.66
2023-07-14T08:31:05.529Z,98984.31
2023-07-14T08:33:32.429Z,98986.84
2023-07-14T08:36:01.708Z,98983.69
2023-07-14T08:38:31.705Z,98974.22
2023-07-14T08:41:07.618Z,98974.84
2023-07-14T08:44:00.337Z,98980.56
2023-07-14T08:46:33.412Z,98969.25
2023-07-14T08:49:15.170Z,98978.03
2023-07-14T08:51:47.516Z,98974.97
2023-07-14T08:54:22.025Z,98969.03
2023-07-14T08:56:50.283Z,98969.88
2023-07-14T08:59:39.470Z,98966.00
2023-07-14T09:02:25.164Z,98966.63
2023-07-14T09:05:01.875Z,98963.53
2023-07-14T09:07:28.638Z,98965.06
2023-07-14T09:09:55.555Z,98964.53
2023-07-14T09:12:35.466Z,98958.44
2023-07-14T09:15:13.004Z,98962.75
2023-07-14T09:17:54.165Z,98957.97
2023-07-14T09:20:20.663Z,98954.91
2023-07-14T09:22:59.536Z,98954.88
2023-07-14T09:25:40.194Z,98949.56
2023-07-14T09:28:18.769Z,98953.09
2023-07-14T09:30:47.265Z,98953.19
2023-07-14T09:33:18.260Z,98951.03
2023-07-14T09:35:46.352Z,98948.53
2023-07-14T09:38:42.992Z,98940.75
2023-07-14T09:41:16.203Z,98936.84
2023-07-14T09:43:42.760Z,98933.72
2023-07-14T09:46:12.135Z,98937.00
2023-07-14T09:48:46.115Z,98937.44
2023-07-14T09:51:17.203Z,98934.84
2023-07-14T09:54:00.625Z,98930.44
2023-07-14T09:56:32.307Z,98929.72
2023-07-14T09:59:03.372Z,98929.88
2023-07-14T10:01:31.200Z,98928.13
2023-07-14T10:04:08.631Z,98935.53
2023-07-14T10:06:35.389Z,98928.75
2023-07-14T10:09:13.049Z,98925.31
2023-07-14T10:11:42.562Z,98916.84
2023-07-14T10:14:36.360Z,98916.63
2023-07-14T10:17:05.781Z,98913.75
2023-07-14T10:19:40.035Z,98903.81
2023-07-14T10:22:14.727Z,98899.44
2023-07-14T10:24:46.808Z,98907.41
2023-07-14T10:27:22.453Z,98900.28
2023-07-14T10:30:12.370Z,98905.03
2023-07-14T10:32:53.330Z,98902.63
2023-07-14T10:35:25.333Z,98904.63
2023-07-14T10:38:10.684Z,98899.09
2023-07-14T10:40:42.593Z,98887.50
2023-07-14T10:43:21.974Z,98885.34
2023-07-14T10:45:55.806Z,98882.09
2023-07-14T10:48:30.526Z,98881.22
2023-07-14T10:51:20.547Z,98884.97
2023-07-14T10:53:56.542Z,98883.41
2023-07-14T10:56:31.362Z,98871.53
2023-07-14T10:59:07.757Z,98866.59
2023-07-14T11:01:37.911Z,98861.22
2023-07-14T11:04:20.102Z,98864.22
2023-07-14T11:06:50.469Z,98860.16
2023-07-14T11:09:17.171Z,98863.97
2023-07-14T11:11:53.759Z,98858.22
2023-07-14T11:14:26.062Z,98844.38
2023-07-14T11:17:20.240Z,98845.31
2023-07-14T11:19:49.617Z,98856.25
2023-07-14T11:22:50.516Z,98851.41
2023-07-14T11:25:24.807Z,98854.13
2023-07-14T11:28:20.688Z,98841.19
2023-07-14T11:30:52.274Z,98848.84
2023-07-14T11:33:38.135Z,98840.56
2023-07-14T11:36:25.935Z,98842.78
2023-07-14T11:39:02.227Z,98841.25
2023-07-14T11:41:29.597Z,98839.75
2023-07-14T11:43:56.369Z,98831.31
2023-07-14T11:46:25.533Z,98833.13
2023-07-14T11:48:55.185Z,98832.16
2023-07-14T11:51:42.919Z,98828.44
2023-07-14T11:54:17.124Z,98822.00
2023-07-14T11:57:04.647Z,98817.69
2023-07-14T11:59:33.493Z,98811.63
2023-07-14T12:02:42.337Z,98814.19
2023-07-14T12:05:14.909Z,98805.84
2023-07-14T12:08:09.769Z,98805.69
2023-07-14T12:10:39.348Z,98801.94
2023-07-14T12:13:35.089Z,98806.84
2023-07-14T12:16:01.621Z,98802.13
2023-07-14T12:18:32.776Z,98805.19
2023-07-14T12:21:17.561Z,98806.34
2023-07-14T12:23:54.618Z,98797.72
2023-07-14T12:26:53.820Z,98792.06
2023-07-14T12:29:22.654Z,98796.09
2023-07-14T12:31:52.022Z,98791.59
2023-07-14T12:34:20.683Z,98783.91
2023-07-14T12:36:47.484Z,98771.81
2023-07-14T12:39:14.069Z,98772.81
2023-07-14T12:41:44.246Z,98770.09
2023-07-14T12:44:25.642Z,98762.44
2023-07-14T12:46:55.723Z,98754.44
2023-07-14T12:49:31.699Z,98750.59
2023-07-14T12:51:59.757Z,98750.22
2023-07-14T12:54:29.022Z,98747.06
2023-07-14T12:56:59.559Z,98742.81
2023-07-14T12:59:26.129Z,98742.44
2023-07-14T13:01:53.791Z,98734.59
2023-07-14T13:04:22.255Z,98737.50
2023-07-14T13:06:55.781Z,98733.19
2023-07-14T13:09:26.026Z,98732.91
2023-07-14T13:11:54.178Z,98725.66
2023-07-14T13:14:24.390Z,98721.16
2023-07-14T13:16:58.444Z,98716.31
2023-07-14T13:19:47.314Z,98714.19
2023-07-14T13:22:26.517Z,98707.28
2023-07-14T13:25:19.632Z,98704.19
2023-07-14T13:27:46.573Z,98709.59
2023-07-14T13:30:20.247Z,98705.47
2023-07-14T13:32:52.100Z,98700.59
2023-07-14T13:35:52.334Z,98700.59
2023-07-14T13:38:19.189Z,98700.31
2023-07-14T13:40:52.063Z,98698.97
2023-07-14T13:43:21.920Z,98684.13
2023-07-14T13:45:59.973Z,98683.78
2023-07-14T13:48:35.508Z,98679.84
2023-07-14T13:51:11.392Z,98678.38
2023-07-14T13:53:37.883Z,98670.09
2023-07-14T13:56:04.478Z,98665.13
2023-07-14T13:58:31.058Z,98662.50
2023-07-14T14:00:57.932Z,98652.09
2023-07-14T14:03:27.353Z,98656.66
2023-07-14T14:05:54.051Z,98657.16
2023-07-14T14:08:20.791Z,98649.78
2023-07-14T14:10:48.583Z,98651.88
2023-07-14T14:13:16.442Z,98658.22
2023-07-14T14:15:48.698Z,98652.66
2023-07-14T14:18:24.638Z,98643.38
2023-07-14T14:20:54.258Z,98644.41
2023-07-14T14:23:21.512Z,98641.50
2023-07-14T14:25:49.167Z,98625.84
2023-07-14T14:28:18.084Z,98629.78
2023-07-14T14:30:48.648Z,98623.00
2023-07-14T14:33:24.415Z,98614.56
2023-07-14T14:35:51.155Z,98607.50
2023-07-14T14:38:36.889Z,98601.16
2023-07-14T14:41:19.339Z,98600.13
2023-07-14T14:43:47.493Z,98590.81
2023-07-14T14:46:14.124Z,98583.09
2023-07-14T14:48:42.238Z,98587.03
2023-07-14T14:51:13.662Z,98583.69
2023-07-14T14:53:42.029Z,98576.84
2023-07-14T14:56:22.365Z,98583.59
2023-07-14T14:58:54.235Z,98579.13
2023-07-14T15:01:40.416Z,98578.06
2023-07-14T15:04:16.096Z,98571.97
2023-07-14T15:06:42.716Z,98575.44
2023-07-14T15:09:09.839Z,98566.41
2023-07-14T15:11:37.344Z,98562.84
2023-07-14T15:14:10.249Z,98562.41
2023-07-14T15:16:37.700Z,98562.41
2023-07-14T15:19:05.129Z,98568.00
2023-07-14T15:21:31.634Z,98570.53
2023-07-14T15:23:58.255Z,98569.50
2023-07-14T15:26:33.313Z,98561.88
2023-07-14T15:29:05.465Z,98559.69
2023-07-14T15:31:34.171Z,98557.56
2023-07-14T15:36:28.925Z,98550.66
2023-07-14T15:38:55.426Z,98534.50
2023-07-14T15:41:22.999Z,98535.88
2023-07-14T15:43:50.985Z,98532.63
2023-07-14T15:46:19.264Z,98534.25
2023-07-14T15:48:48.266Z,98529.34
2023-07-14T15:51:19.268Z,98525.00
2023-07-14T15:53:46.140Z,98523.28
2023-07-14T15:56:22.058Z,98529.94
2023-07-14T15:58:49.124Z,98524.81
2023-07-14T16:01:28.428Z,98526.56
2023-07-14T16:03:57.713Z,98522.09
2023-07-14T16:06:25.488Z,98513.84
2023-07-14T16:08:55.406Z,98511.03
2023-07-14T16:11:25.578Z,98502.59
2023-07-14T16:13:52.229Z,98502.03
2023-07-14T16:16:18.862Z,98501.91
2023-07-14T16:18:45.787Z,98504.09
2023-07-14T16:21:21.901Z,98491.53
2023-07-14T16:23:48.737Z,98491.81
2023-07-14T16:26:16.516Z,98486.16
2023-07-14T16:28:43.072Z,98481.41
2023-07-14T16:31:17.354Z,98482.81
2023-07-14T16:33:44.291Z,98479.25
2023-07-14T16:36:26.938Z,98482.06
2023-07-14T16:38:57.789Z,98471.66
2023-07-14T16:41:24.323Z,98471.13
2023-07-14T16:43:50.934Z,98477.03
2023-07-14T16:46:17.927Z,98466.97
2023-07-14T16:48:45.577Z,98475.41
2023-07-14T16:51:16.170Z,98481.97
2023-07-14T16:53:42.757Z,98482.06
2023-07-14T16:56:13.906Z,98476.44
2023-07-14T16:58:41.577Z,98475.69
2023-07-14T17:01:17.482Z,98467.97
2023-07-14T17:03:44.565Z,98470.38
2023-07-14T17:06:12.593Z,98476.00
2023-07-14T17:08:43.113Z,98471.13
2023-07-14T17:11:10.783Z,98459.75
2023-07-14T17:13:39.981Z,98470.31
2023-07-14T17:16:09.516Z,98464.22
2023-07-14T17:18:39.982Z,98463.63
2023-07-14T17:21:10.224Z,98454.56
2023-07-14T17:23:39.272Z,98456.31
2023-07-14T17:26:06.543Z,98459.91
2023-07-14T17:28:35.356Z,98450.28
2023-07-14T17:31:02.455Z,98438.31
2023-07-14T17:33:29.815Z,98438.78
2023-07-14T17:36:06.330Z,98440.13
2023-07-14T17:38:36.420Z,98435.16
2023-07-14T17:41:03.261Z,98433.13
2023-07-14T17:43:29.809Z,98435.94
2023-07-14T17:45:56.326Z,98440.78
2023-07-14T17:48:23.001Z,98443.69
2023-07-14T17:50:54.586Z,98440.41
2023-07-14T17:53:22.677Z,98438.13
2023-07-14T17:55:50.192Z,98433.88
2023-07-14T17:58:19.727Z,98444.13
2023-07-14T18:00:47.318Z,98438.63
2023-07-14T18:03:32.120Z,98445.50
2023-07-14T18:05:59.840Z,98437.38
2023-07-14T18:08:28.736Z,98440.09
2023-07-14T18:11:02.963Z,98441.38
2023-07-14T18:13:39.224Z,98441.75
2023-07-14T18:16:05.843Z,98439.34
2023-07-14T18:18:32.961Z,98438.28
2023-07-14T18:21:02.033Z,98432.31
2023-07-14T18:23:31.766Z,98424.25
2023-07-14T18:25:59.563Z,98418.84
2023-07-14T18:28:29.342Z,98415.84
2023-07-14T18:30:56.962Z,98411.13
2023-07-14T18:33:29.970Z,98410.94
2023-07-14T18:35:57.426Z,98406.91
2023-07-14T18:38:28.038Z,98404.19
2023-07-14T18:40:57.373Z,98408.78
2023-07-14T18:43:40.823Z,98403.59
2023-07-14T18:46:11.438Z,98406.69
2023-07-14T18:48:38.471Z,98405.03
2023-07-14T18:51:25.568Z,98403.88
2023-07-14T18:53:55.862Z,98404.72
2023-07-14T18:56:22.664Z,98408.13
2023-07-14T18:58:49.842Z,98401.56
2023-07-14T19:01:21.346Z,98406.81
2023-07-14T19:03:49.267Z,98402.16
2023-07-14T19:06:25.698Z,98405.88
2023-07-14T19:08:58.845Z,98402.75
2023-07-14T19:11:25.998Z,98400.66
2023-07-14T19:13:54.144Z,98401.00
2023-07-14T19:16:26.382Z,98406.91
2023-07-14T19:18:54.159Z,98408.31
2023-07-14T19:21:26.208Z,98410.91
2023-07-14T19:23:53.157Z,98407.63
2023-07-14T19:26:20.047Z,98413.53
2023-07-14T19:28:47.573Z,98413.59
2023-07-14T19:31:21.917Z,98413.69
2023-07-14T19:33:49.676Z,98416.81
2023-07-14T19:36:18.184Z,98418.81
2023-07-14T19:38:45.880Z,98411.22
2023-07-14T19:41:14.403Z,98415.84
2023-07-14T19:43:41.223Z,98424.84
2023-07-14T19:46:16.409Z,98421.50
2023-07-14T19:48:43.781Z,98419.00
2023-07-14T19:51:23.242Z,98413.84
2023-07-14T19:53:51.527Z,98417.41
2023-07-14T19:56:20.166Z,98407.91
2023-07-14T19:58:48.806Z,98410.72
2023-07-14T20:01:17.107Z,98405.34
2023-07-14T20:03:44.508Z,98408.75
2023-07-14T20:06:17.128Z,98397.75
2023-07-14T20:08:44.440Z,98402.97
2023-07-14T20:11:18.703Z,98412.19
2023-07-14T20:13:45.256Z,98400.59
2023-07-14T20:16:17.459Z,98403.16
2023-07-14T20:18:46.593Z,98402.19
2023-07-14T20:21:26.615Z,98406.13
2023-07-14T20:23:53.811Z,98406.06
2023-07-14T20:26:20.326Z,98399.72
2023-07-14T20:28:49.954Z,98395.88
2023-07-14T20:31:23.514Z,98396.09
2023-07-14T20:33:53.929Z,98395.88
2023-07-14T20:36:23.508Z,98395.69
2023-07-14T20:38:50.757Z,98393.19
2023-07-14T20:41:35.826Z,98395.97
2023-07-14T20:44:02.634Z,98398.41
2023-07-14T20:46:33.826Z,98387.81
2023-07-14T20:49:16.178Z,98384.69
2023-07-14T20:51:43.831Z,98395.97
2023-07-14T20:54:13.696Z,98393.03
2023-07-14T20:56:40.778Z,98388.78
2023-07-14T20:59:07.496Z,98384.34
2023-07-14T21:01:35.852Z,98385.47
2023-07-14T21:04:18.718Z,98373.09
2023-07-14T21:06:45.312Z,98377.69
2023-07-14T21:09:12.439Z,98384.69
2023-07-14T21:11:39.347Z,98370.59
2023-07-14T21:14:10.878Z,98363.38
2023-07-14T21:16:37.650Z,98366.53
2023-07-14T21:19:04.332Z,98362.97
2023-07-14T21:21:36.383Z,98360.69
2023-07-14T21:24:12.876Z,98356.22
2023-07-14T21:26:39.413Z,98351.91
2023-07-14T21:29:07.204Z,98339.69
2023-07-14T21:31:42.372Z,98344.97
2023-07-14T21:34:14.875Z,98339.41
2023-07-14T21:36:41.821Z,98333.81
2023-07-14T21:39:22.228Z,98335.22
2023-07-14T21:41:50.799Z,98335.06
2023-07-14T21:44:17.697Z,98327.41
2023-07-14T21:46:44.646Z,98328.03
2023-07-14T21:49:13.122Z,98331.09
2023-07-14T21:51:40.064Z,98323.03
2023-07-14T21:54:10.178Z,98330.00
2023-07-14T21:56:40.267Z,98328.78
2023-07-14T21:59:15.340Z,98327.56
2023-07-14T22:01:48.852Z,98329.91
2023-07-14T22:04:29.812Z,98329.28
2023-07-14T22:06:57.266Z,98333.09
2023-07-14T22:09:24.364Z,98335.22
2023-07-14T22:11:50.928Z,98336.25
2023-07-14T22:14:20.524Z,98345.97
2023-07-14T22:16:47.103Z,98343.34
2023-07-14T22:19:15.772Z,98347.16
2023-07-14T22:21:43.447Z,98345.38
2023-07-14T22:24:17.842Z,98341.25
2023-07-14T22:26:45.088Z,98339.59
2023-07-14T22:29:11.681Z,98332.66
2023-07-14T22:31:39.180Z,98330.59
2023-07-14T22:34:17.291Z,98327.28
2023-07-14T22:36:44.405Z,98327.03
2023-07-14T22:39:13.479Z,98336.84
2023-07-14T22:41:42.318Z,98340.63
2023-07-14T22:44:13.045Z,98339.31
2023-07-14T22:46:39.680Z,98347.97
2023-07-14T22:49:06.240Z,98342.44
2023-07-14T22:51:34.662Z,98330.63
2023-07-14T22:54:05.081Z,98319.56
2023-07-14T22:56:31.698Z,98329.69
2023-07-14T22:58:58.975Z,98321.47
2023-07-14T23:01:32.971Z,98327.72
2023-07-14T23:04:00.145Z,98327.72
2023-07-14T23:06:28.001Z,98321.81
2023-07-14T23:08:55.575Z,98330.13
2023-07-14T23:11:32.725Z,98322.84
2023-07-14T23:14:00.101Z,98318.34
2023-07-14T23:16:27.201Z,98319.06
2023-07-14T23:18:53.950Z,98320.41
2023-07-14T23:21:28.872Z,98321.63
2023-07-14T23:23:56.554Z,98312.94
2023-07-14T23:26:26.496Z,98307.56
2023-07-14T23:28:56.540Z,98314.06
2023-07-14T23:31:28.845Z,98304.13
2023-07-14T23:33:55.562Z,98304.34
2023-07-14T23:36:23.902Z,98299.50
2023-07-14T23:38:50.606Z,98295.84
2023-07-14T23:41:30.171Z,98288.16
2023-07-14T23:43:58.701Z,98294.34
2023-07-14T23:46:26.549Z,98294.47
2023-07-14T23:48:53.984Z,98274.72
2023-07-14T23:51:26.601Z,98271.94
2023-07-14T23:53:53.485Z,98278.25
2023-07-14T23:56:20.789Z,98279.34
2023-07-14T23:58:47.392Z,98275.06
